SondeTracker

Meteorological Radiosondes Database

Operations

Sounding was ended - last measurement: 2022-12-06 01:28:14z

MAP
About Radiosonde

Number: D22035485 ([BC]22035485)

Launch Site:

Type: DFM

AUX: NO

Frequency: MHz

Max Speed: 198 km/h at 13344 m

Average Speed: 111.07 km/h

Max Altitude: 24031 m

Average Ascent Speed: 4.24 m/s

Average Descent Speed: 5.45 m/s

Status: UNKNOWN

Status Changes
Launch Site Type AUX Frequency Status Finder Landing Point Description Changes made by
APRS Statistics

Received Frames: 305

First Frame [UTC]: 2022-12-05 23:58:23z

Last Frame [UTC]: 2022-12-06 01:28:14z

Receivers: W4DEX-14

Flight Time: 01:29:51 h

Distance From First Measurement: 160.84 km

Nearest City: Seymour [TN] (US) [10.73 km]

Nearest Hunter: kb5ag [20.03 km]

Ground Altitude: 280 m

Distance from QTH: 0.00 km

APRS Data
Receiver Number Date/Time [UTC] φ λ Course [°] Speed [km/h] Altitude [m] Description
W4DEX-14D220354852022-12-06 01:28:1435.9715-83.75699836052Clb=-2.3m/s Type=DFM Details on http://radiosondy.info
W4DEX-14D220354852022-12-06 01:26:5435.9733-83.77791001066190Clb=-2.2m/s Type=DFM17 ser=[BC]22035485 Details on http://radiosondy.info
W4DEX-14D220354852022-12-06 01:26:3535.9737-83.783894986210Clb=-1.4m/s Type=DFM17 ser=[BC]22035485 Details on http://radiosondy.info
W4DEX-14D220354852022-12-06 01:26:1235.9739-83.7908921006255Clb=-1.6m/s Type=DFM17 ser=[BC]22035485 Details on http://radiosondy.info
W4DEX-14D220354852022-12-06 01:25:5635.9741-83.795695966291Clb=-2.2m/s Type=DFM17 ser=[BC]22035485 Details on http://radiosondy.info
W4DEX-14D220354852022-12-06 01:25:3535.9744-83.8019971006325Clb=-2.3m/s Type=DFM Details on http://radiosondy.info
W4DEX-14D220354852022-12-06 01:25:1935.9746-83.80792986362Clb=-2.6m/s Type=DFM17 ser=[BC]22035485 Details on http://radiosondy.info
W4DEX-14D220354852022-12-06 01:25:0435.9749-83.8116971006402Clb=-2.2m/s Type=DFM17 ser=[BC]22035485 Details on http://radiosondy.info
W4DEX-14D220354852022-12-06 01:24:4735.9751-83.8169971026439Clb=-2.4m/s Type=DFM17 ser=[BC]22035485 Details on http://radiosondy.info
W4DEX-14D220354852022-12-06 01:24:3235.9754-83.821790966485Clb=-3.2m/s Type=DFM17 ser=[BC]22035485 Details on http://radiosondy.info
W4DEX-14D220354852022-12-06 01:24:1735.9755-83.8261901026531Clb=-2.8m/s Type=DFM17 ser=[BC]22035485 Details on http://radiosondy.info
W4DEX-14D220354852022-12-06 01:24:0235.9757-83.8308901006579Clb=-3.3m/s Type=DFM17 ser=[BC]22035485 Details on http://radiosondy.info
W4DEX-14D220354852022-12-06 01:23:4735.9759-83.8354961076632Clb=-3.6m/s Type=DFM17 ser=[BC]22035485 Details on http://radiosondy.info
W4DEX-14D220354852022-12-06 01:23:3235.9761-83.8404911006690Clb=-4.8m/s Type=DFM17 ser=[BC]22035485 Details on http://radiosondy.info
W4DEX-14D220354852022-12-06 01:23:1635.9759-83.845389986747Clb=-3.7m/s Type=DFM17 ser=[BC]22035485 Details on http://radiosondy.info
W4DEX-14D220354852022-12-06 01:23:0135.9759-83.8498931006802Clb=-3.7m/s Type=DFM17 ser=[BC]22035485 Details on http://radiosondy.info
W4DEX-14D220354852022-12-06 01:22:4635.9759-83.854486966856Clb=-3.1m/s Type=DFM17 ser=[BC]22035485 Details on http://radiosondy.info
W4DEX-14D220354852022-12-06 01:22:3135.9757-83.858992986907Clb=-3.0m/s Type=DFM17 ser=[BC]22035485 Details on http://radiosondy.info
W4DEX-14D220354852022-12-06 01:22:1635.9756-83.863489966955Clb=-3.0m/s Type=DFM17 ser=[BC]22035485 Details on http://radiosondy.info
W4DEX-14D220354852022-12-06 01:22:0135.9753-83.867883947008Clb=-3.6m/s Type=DFM17 ser=[BC]22035485 Details on http://radiosondy.info
W4DEX-14D220354852022-12-06 01:21:4635.9752-83.872284947054Clb=-3.4m/s Type=DFM17 ser=[BC]22035485 Details on http://radiosondy.info
W4DEX-14D220354852022-12-06 01:21:3135.9749-83.876585967102Clb=-3.5m/s Type=DFM17 ser=[BC]22035485 Details on http://radiosondy.info
W4DEX-14D220354852022-12-06 01:21:1635.9746-83.881911007145Clb=-3.0m/s Type=DFM17 ser=[BC]22035485 Details on http://radiosondy.info
W4DEX-14D220354852022-12-06 01:21:0135.9745-83.8856931007187Clb=-3.2m/s Type=DFM17 ser=[BC]22035485 Details on http://radiosondy.info
W4DEX-14D220354852022-12-06 01:20:4635.9742-83.8902911047234Clb=-3.5m/s Type=DFM17 ser=[BC]22035485 Details on http://radiosondy.info
W4DEX-14D220354852022-12-06 01:20:3135.9739-83.8949851077288Clb=-4.4m/s Type=DFM17 ser=[BC]22035485 Details on http://radiosondy.info
W4DEX-14D220354852022-12-06 01:20:1635.9735-83.8998811067347Clb=-3.6m/s Type=DFM17 ser=[BC]22035485 Details on http://radiosondy.info
W4DEX-14D220354852022-12-06 01:20:0135.973-83.9047801117402Clb=-3.9m/s Type=DFM17 ser=[BC]22035485 Details on http://radiosondy.info
W4DEX-14D220354852022-12-06 01:19:4635.9726-83.9098851157454Clb=-3.3m/s Type=DFM17 ser=[BC]22035485 Details on http://radiosondy.info
W4DEX-14D220354852022-12-06 01:19:3135.9722-83.9151901197509Clb=-3.5m/s Type=DFM17 ser=[BC]22035485 Details on http://radiosondy.info
W4DEX-14D220354852022-12-06 01:19:1635.972-83.9206861227564Clb=-3.3m/s Type=DFM17 ser=[BC]22035485 Details on http://radiosondy.info
W4DEX-14D220354852022-12-06 01:19:0235.9717-83.9261891267621Clb=-4.1m/s Type=DFM17 ser=[BC]22035485 Details on http://radiosondy.info
W4DEX-14D220354852022-12-06 01:18:4635.9714-83.932831247677Clb=-3.8m/s Type=DFM17 ser=[BC]22035485 Details on http://radiosondy.info
W4DEX-14D220354852022-12-06 01:18:3135.9712-83.9376941287732Clb=-3.6m/s Type=DFM17 ser=[BC]22035485 Details on http://radiosondy.info
W4DEX-14D220354852022-12-06 01:18:1635.9711-83.9436841247784Clb=-3.2m/s Type=DFM17 ser=[BC]22035485 Details on http://radiosondy.info
W4DEX-14D220354852022-12-06 01:18:0335.971-83.9493861227835Clb=-2.7m/s Type=DFM17 ser=[BC]22035485 Details on http://radiosondy.info
W4DEX-14D220354852022-12-06 01:17:4835.9707-83.9549921247886Clb=-3.1m/s Type=DFM17 ser=[BC]22035485 Details on http://radiosondy.info
W4DEX-14D220354852022-12-06 01:17:3335.9706-83.9606841207935Clb=-3.4m/s Type=DFM17 ser=[BC]22035485 Details on http://radiosondy.info
W4DEX-14D220354852022-12-06 01:17:1735.9704-83.9662901247986Clb=-3.2m/s Type=DFM17 ser=[BC]22035485 Details on http://radiosondy.info
W4DEX-14D220354852022-12-06 01:17:0235.9703-83.9719941288042Clb=-3.7m/s Type=DFM17 ser=[BC]22035485 Details on http://radiosondy.info
W4DEX-14D220354852022-12-06 01:16:4635.9701-83.9778901308098Clb=-3.1m/s Type=DFM17 ser=[BC]22035485 Details on http://radiosondy.info
W4DEX-14D220354852022-12-06 01:16:3135.97-83.9837851288147Clb=-3.6m/s Type=DFM17 ser=[BC]22035485 Details on http://radiosondy.info
W4DEX-14D220354852022-12-06 01:16:1635.9699-83.9896881318199Clb=-3.2m/s Type=DFM17 ser=[BC]22035485 Details on http://radiosondy.info
W4DEX-14D220354852022-12-06 01:16:0235.9697-83.9956911338246Clb=-3.6m/s Type=DFM17 ser=[BC]22035485 Details on http://radiosondy.info
W4DEX-14D220354852022-12-06 01:15:4735.9696-84.0018881358299Clb=-3.6m/s Type=DFM17 ser=[BC]22035485 Details on http://radiosondy.info
W4DEX-14D220354852022-12-06 01:15:3335.9696-84.008861338351Clb=-3.2m/s Type=DFM17 ser=[BC]22035485 Details on http://radiosondy.info
W4DEX-14D220354852022-12-06 01:15:1935.9696-84.0142931358399Clb=-3.4m/s Type=DFM17 ser=[BC]22035485 Details on http://radiosondy.info
W4DEX-14D220354852022-12-06 01:15:0535.9696-84.0204961378450Clb=-3.1m/s Type=DFM17 ser=[BC]22035485 Details on http://radiosondy.info
W4DEX-14D220354852022-12-06 01:14:5035.9696-84.0267881418501Clb=-3.5m/s Type=DFM17 ser=[BC]22035485 Details on http://radiosondy.info
W4DEX-14D220354852022-12-06 01:14:3635.9696-84.0332831378553Clb=-3.8m/s Type=DFM17 ser=[BC]22035485 Details on http://radiosondy.info
W4DEX-14D220354852022-12-06 01:14:2235.9696-84.0395911418606Clb=-3.3m/s Type=DFM17 ser=[BC]22035485 Details on http://radiosondy.info
W4DEX-14D220354852022-12-06 01:14:0635.9695-84.046871398658Clb=-3.4m/s Type=DFM17 ser=[BC]22035485 Details on http://radiosondy.info
W4DEX-14D220354852022-12-06 01:13:5235.9695-84.0524891398707Clb=-4.0m/s Type=DFM17 ser=[BC]22035485 Details on http://radiosondy.info
W4DEX-14D220354852022-12-06 01:13:3635.9695-84.0588921418760Clb=-3.8m/s Type=DFM17 ser=[BC]22035485 Details on http://radiosondy.info
W4DEX-14D220354852022-12-06 01:13:2135.9694-84.0652881378815Clb=-3.6m/s Type=DFM17 ser=[BC]22035485 Details on http://radiosondy.info
W4DEX-14D220354852022-12-06 01:13:0635.9694-84.0716861418871Clb=-4.2m/s Type=DFM17 ser=[BC]22035485 Details on http://radiosondy.info
W4DEX-14D220354852022-12-06 01:12:5235.9693-84.078861358925Clb=-3.4m/s Type=DFM17 ser=[BC]22035485 Details on http://radiosondy.info
W4DEX-14D220354852022-12-06 01:12:3735.9692-84.0842911398984Clb=-3.9m/s Type=DFM17 ser=[BC]22035485 Details on http://radiosondy.info
W4DEX-14D220354852022-12-06 01:12:2135.9691-84.0906941399041Clb=-3.7m/s Type=DFM17 ser=[BC]22035485 Details on http://radiosondy.info
W4DEX-14D220354852022-12-06 01:12:0535.9691-84.097901359099Clb=-3.6m/s Type=DFM17 ser=[BC]22035485 Details on http://radiosondy.info
W4DEX-14D220354852022-12-06 01:11:5035.9691-84.1032851379151Clb=-3.1m/s Type=DFM17 ser=[BC]22035485 Details on http://radiosondy.info
W4DEX-14D220354852022-12-06 01:11:4335.969-84.116921379253Clb=-3.0m/s Type=DFM17 ser=[BC]22035485 Details on http://radiosondy.info
W4DEX-14D220354852022-12-06 01:11:0535.9691-84.1223961379298Clb=-3.0m/s Type=DFM17 ser=[BC]22035485 Details on http://radiosondy.info
W4DEX-14D220354852022-12-06 01:10:5135.9691-84.1286971399346Clb=-3.7m/s Type=DFM17 ser=[BC]22035485 Details on http://radiosondy.info
W4DEX-14D220354852022-12-06 01:10:3635.9691-84.1349981449398Clb=-3.7m/s Type=DFM17 ser=[BC]22035485 Details on http://radiosondy.info
W4DEX-14D220354852022-12-06 01:10:2035.9692-84.1416881449451Clb=-3.6m/s Type=DFM17 ser=[BC]22035485 Details on http://radiosondy.info
W4DEX-14D220354852022-12-06 01:10:0635.9693-84.1483861449505Clb=-3.8m/s Type=DFM17 ser=[BC]22035485 Details on http://radiosondy.info
W4DEX-14D220354852022-12-06 01:09:5135.9695-84.1549871469562Clb=-3.4m/s Type=DFM17 ser=[BC]22035485 Details on http://radiosondy.info
W4DEX-14D220354852022-12-06 01:09:3635.9695-84.1616831469617Clb=-3.7m/s Type=DFM17 ser=[BC]22035485 Details on http://radiosondy.info
W4DEX-14D220354852022-12-06 01:09:2035.9696-84.1683871449676Clb=-3.7m/s Type=DFM17 ser=[BC]22035485 Details on http://radiosondy.info
W4DEX-14D220354852022-12-06 01:09:0635.9697-84.1749971439734Clb=-3.8m/s Type=DFM17 ser=[BC]22035485 Details on http://radiosondy.info
W4DEX-14D220354852022-12-06 01:08:5035.9698-84.1816991469794Clb=-4.2m/s Type=DFM17 ser=[BC]22035485 Details on http://radiosondy.info
W4DEX-14D220354852022-12-06 01:08:3435.9699-84.1883881439859Clb=-4.6m/s Type=DFM17 ser=[BC]22035485 Details on http://radiosondy.info
W4DEX-14D220354852022-12-06 01:08:1735.97-84.1948841419927Clb=-4.6m/s Type=DFM17 ser=[BC]22035485 Details on http://radiosondy.info
W4DEX-14D220354852022-12-06 01:08:0135.9701-84.2012891379997Clb=-4.6m/s Type=DFM17 ser=[BC]22035485 Details on http://radiosondy.info
W4DEX-14D220354852022-12-06 01:07:4635.9701-84.20769813710069Clb=-4.6m/s Type=DFM17 ser=[BC]22035485 Details on http://radiosondy.info
W4DEX-14D220354852022-12-06 01:07:3135.9701-84.21399513910140Clb=-4.6m/s Type=DFM17 ser=[BC]22035485 Details on http://radiosondy.info
W4DEX-14D220354852022-12-06 01:07:1635.9699-84.22029313910210Clb=-4.4m/s Type=DFM17 ser=[BC]22035485 Details on http://radiosondy.info
W4DEX-14D220354852022-12-06 01:07:0135.9697-84.22668514110276Clb=-4.1m/s Type=DFM17 ser=[BC]22035485 Details on http://radiosondy.info
W4DEX-14D220354852022-12-06 01:06:4635.9696-84.2339313910347Clb=-4.8m/s Type=DFM17 ser=[BC]22035485 Details on http://radiosondy.info
W4DEX-14D220354852022-12-06 01:06:4335.9695-84.23958913710421Clb=-5.0m/s Type=DFM17 ser=[BC]22035485 Details on http://radiosondy.info
W4DEX-14D220354852022-12-06 01:06:4235.9692-84.24588213710498Clb=-5.0m/s Type=DFM17 ser=[BC]22035485 Details on http://radiosondy.info
W4DEX-14D220354852022-12-06 01:06:4135.9686-84.25859014410631Clb=-4.3m/s Type=DFM17 ser=[BC]22035485 Details on http://radiosondy.info
W4DEX-14D220354852022-12-06 01:06:3835.9686-84.26529214610688Clb=-4.3m/s Type=DFM17 ser=[BC]22035485 Details on http://radiosondy.info
W4DEX-14D220354852022-12-06 01:06:3235.9686-84.27199314810756Clb=-4.8m/s Type=DFM17 ser=[BC]22035485 Details on http://radiosondy.info
W4DEX-14D220354852022-12-06 01:06:2135.9686-84.27879215210830Clb=-4.8m/s Type=DFM17 ser=[BC]22035485 Details on http://radiosondy.info
W4DEX-14D220354852022-12-06 01:06:1135.9687-84.28579915610906Clb=-4.6m/s Type=DFM17 ser=[BC]22035485 Details on http://radiosondy.info
W4DEX-14D220354852022-12-06 01:06:0135.9691-84.292910116310977Clb=-4.9m/s Type=DFM17 ser=[BC]22035485 Details on http://radiosondy.info
W4DEX-14D220354852022-12-06 01:05:5935.9697-84.300410316911047Clb=-4.4m/s Type=DFM17 ser=[BC]22035485 Details on http://radiosondy.info
W4DEX-14D220354852022-12-06 01:05:5635.9704-84.308110017011113Clb=-4.4m/s Type=DFM17 ser=[BC]22035485 Details on http://radiosondy.info
W4DEX-14D220354852022-12-06 01:05:5335.9713-84.31589316311182Clb=-4.7m/s Type=DFM17 ser=[BC]22035485 Details on http://radiosondy.info
W4DEX-14D220354852022-12-06 01:05:5135.9723-84.323210616711249Clb=-4.2m/s Type=DFM17 ser=[BC]22035485 Details on http://radiosondy.info
W4DEX-14D220354852022-12-06 01:05:4835.9734-84.330810116911316Clb=-4.2m/s Type=DFM17 ser=[BC]22035485 Details on http://radiosondy.info
W4DEX-14D220354852022-12-06 01:05:4535.9744-84.33849416311380Clb=-4.1m/s Type=DFM17 ser=[BC]22035485 Details on http://radiosondy.info
W4DEX-14D220354852022-12-06 01:05:3935.9755-84.345710816311444Clb=-4.3m/s Type=DFM17 ser=[BC]22035485 Details on http://radiosondy.info
W4DEX-14D220354852022-12-06 01:05:2435.9769-84.35310616511510Clb=-4.5m/s Type=DFM17 ser=[BC]22035485 Details on http://radiosondy.info
W4DEX-14D220354852022-12-06 01:05:1035.9783-84.36049916511576Clb=-4.5m/s Type=DFM17 ser=[BC]22035485 Details on http://radiosondy.info
W4DEX-14D220354852022-12-06 01:05:0035.9814-84.375110817011711Clb=-4.2m/s Type=DFM17 ser=[BC]22035485 Details on http://radiosondy.info
W4DEX-14D220354852022-12-06 01:04:5935.9832-84.382610317211781Clb=-5.5m/s Type=DFM17 ser=[BC]22035485 Details on http://radiosondy.info
W4DEX-14D220354852022-12-06 01:04:5835.9852-84.390210417211852Clb=-5.3m/s Type=DFM17 ser=[BC]22035485 Details on http://radiosondy.info
W4DEX-14D220354852022-12-06 01:04:5135.9873-84.397610316911927Clb=-5.1m/s Type=DFM17 ser=[BC]22035485 Details on http://radiosondy.info
W4DEX-14D220354852022-12-06 01:04:3835.9895-84.404911217011998Clb=-4.6m/s Type=DFM17 ser=[BC]22035485 Details on http://radiosondy.info
W4DEX-14D220354852022-12-06 01:04:1835.9917-84.412311417012068Clb=-5.3m/s Type=DFM17 ser=[BC]22035485 Details on http://radiosondy.info
W4DEX-14D220354852022-12-06 01:03:5935.994-84.419611016712133Clb=-4.1m/s Type=DFM17 ser=[BC]22035485 Details on http://radiosondy.info
W4DEX-14D220354852022-12-06 01:03:3935.9962-84.426811216512195Clb=-4.4m/s Type=DFM17 ser=[BC]22035485 Details on http://radiosondy.info
W4DEX-14D220354852022-12-06 01:03:1635.9984-84.433911116112255Clb=-4.1m/s Type=DFM17 ser=[BC]22035485 Details on http://radiosondy.info
W4DEX-14D220354852022-12-06 01:02:5736.0006-84.440811516512318Clb=-3.8m/s Type=DFM17 ser=[BC]22035485 Details on http://radiosondy.info
W4DEX-14D220354852022-12-06 01:02:3736.0031-84.447711616712378Clb=-4.4m/s Type=DFM17 ser=[BC]22035485 Details on http://radiosondy.info
W4DEX-14D220354852022-12-06 01:02:1836.0055-84.454812016312442Clb=-3.8m/s Type=DFM17 ser=[BC]22035485 Details on http://radiosondy.info
W4DEX-14D220354852022-12-06 01:01:5936.0079-84.461611715912505Clb=-4.1m/s Type=DFM17 ser=[BC]22035485 Details on http://radiosondy.info
W4DEX-14D220354852022-12-06 01:01:3636.01-84.468511516112571Clb=-4.5m/s Type=DFM17 ser=[BC]22035485 Details on http://radiosondy.info
W4DEX-14D220354852022-12-06 01:01:1336.012-84.475610316312637Clb=-4.5m/s Type=DFM17 ser=[BC]22035485 Details on http://radiosondy.info
W4DEX-14D220354852022-12-06 01:00:5336.0136-84.48299916512709Clb=-5.4m/s Type=DFM17 ser=[BC]22035485 Details on http://radiosondy.info
W4DEX-14D220354852022-12-06 01:00:3236.0151-84.490210316512787Clb=-6.0m/s Type=DFM17 ser=[BC]22035485 Details on http://radiosondy.info
W4DEX-14D220354852022-12-06 01:00:1036.0165-84.497610216912865Clb=-5.2m/s Type=DFM17 ser=[BC]22035485 Details on http://radiosondy.info
W4DEX-14D220354852022-12-06 00:59:4936.018-84.505110317412943Clb=-5.3m/s Type=DFM17 ser=[BC]22035485 Details on http://radiosondy.info
W4DEX-14D220354852022-12-06 00:59:3036.0196-84.512910017813022Clb=-5.1m/s Type=DFM17 ser=[BC]22035485 Details on http://radiosondy.info
W4DEX-14D220354852022-12-06 00:59:0836.0212-84.5219918013102Clb=-5.3m/s Type=DFM17 ser=[BC]22035485 Details on http://radiosondy.info
W4DEX-14D220354852022-12-06 00:58:4836.0226-84.529110218513182Clb=-5.3m/s Type=DFM17 ser=[BC]22035485 Details on http://radiosondy.info
W4DEX-14D220354852022-12-06 00:58:2836.024-84.537510619313262Clb=-5.3m/s Type=DFM17 ser=[BC]22035485 Details on http://radiosondy.info
W4DEX-14D220354852022-12-06 00:58:0736.0253-84.546210419813344Clb=-5.5m/s Type=DFM17 ser=[BC]22035485 Details on http://radiosondy.info
W4DEX-14D220354852022-12-06 00:57:4436.0266-84.55519919813427Clb=-5.3m/s Type=DFM17 ser=[BC]22035485 Details on http://radiosondy.info
W4DEX-14D220354852022-12-06 00:57:2136.028-84.56419819613512Clb=-5.6m/s Type=DFM17 ser=[BC]22035485 Details on http://radiosondy.info
W4DEX-14D220354852022-12-06 00:56:5836.0295-84.5739818913599Clb=-5.6m/s Type=DFM17 ser=[BC]22035485 Details on http://radiosondy.info
W4DEX-14D220354852022-12-06 00:56:3736.0311-84.58149918713687Clb=-5.8m/s Type=DFM17 ser=[BC]22035485 Details on http://radiosondy.info
W4DEX-14D220354852022-12-06 00:56:1636.0327-84.589810018013778Clb=-5.9m/s Type=DFM17 ser=[BC]22035485 Details on http://radiosondy.info
W4DEX-14D220354852022-12-06 00:55:5436.0345-84.597710118313869Clb=-6.1m/s Type=DFM17 ser=[BC]22035485 Details on http://radiosondy.info
W4DEX-14D220354852022-12-06 00:55:3136.0363-84.605910118013962Clb=-6.1m/s Type=DFM17 ser=[BC]22035485 Details on http://radiosondy.info
W4DEX-14D220354852022-12-06 00:55:1036.0379-84.613910218714055Clb=-6.2m/s Type=DFM17 ser=[BC]22035485 Details on http://radiosondy.info
W4DEX-14D220354852022-12-06 00:54:4836.0396-84.622310118514149Clb=-6.3m/s Type=DFM17 ser=[BC]22035485 Details on http://radiosondy.info
W4DEX-14D220354852022-12-06 00:54:2736.0412-84.63059917814244Clb=-6.3m/s Type=DFM17 ser=[BC]22035485 Details on http://radiosondy.info
W4DEX-14D220354852022-12-06 00:54:0136.0428-84.638510017414338Clb=-6.5m/s Type=DFM17 ser=[BC]22035485 Details on http://radiosondy.info
W4DEX-14D220354852022-12-06 00:53:3736.0445-84.646210417014435Clb=-6.3m/s Type=DFM17 ser=[BC]22035485 Details on http://radiosondy.info
W4DEX-14D220354852022-12-06 00:53:1436.0461-84.653810117614526Clb=-6.9m/s Type=DFM17 ser=[BC]22035485 Details on http://radiosondy.info
W4DEX-14D220354852022-12-06 00:52:5136.0474-84.661810217414615Clb=-5.0m/s Type=DFM17 ser=[BC]22035485 Details on http://radiosondy.info
W4DEX-14D220354852022-12-06 00:52:2536.0486-84.669610718014699Clb=-6.0m/s Type=DFM17 ser=[BC]22035485 Details on http://radiosondy.info
W4DEX-14D220354852022-12-06 00:52:0136.0501-84.677710718114781Clb=-5.9m/s Type=DFM17 ser=[BC]22035485 Details on http://radiosondy.info
W4DEX-14D220354852022-12-06 00:51:4636.0517-84.685810718514861Clb=-4.9m/s Type=DFM17 ser=[BC]22035485 Details on http://radiosondy.info
W4DEX-14D220354852022-12-06 00:51:3336.0536-84.694110418914942Clb=-4.5m/s Type=DFM17 ser=[BC]22035485 Details on http://radiosondy.info
W4DEX-14D220354852022-12-06 00:51:1636.0557-84.702410618915032Clb=-5.6m/s Type=DFM17 ser=[BC]22035485 Details on http://radiosondy.info
W4DEX-14D220354852022-12-06 00:51:0136.0584-84.710411318715109Clb=-4.9m/s Type=DFM17 ser=[BC]22035485 Details on http://radiosondy.info
W4DEX-14D220354852022-12-06 00:50:4636.0612-84.718411117615190Clb=-4.9m/s Type=DFM17 ser=[BC]22035485 Details on http://radiosondy.info
W4DEX-14D220354852022-12-06 00:50:3336.064-84.725611517015279Clb=-4.4m/s Type=DFM17 ser=[BC]22035485 Details on http://radiosondy.info
W4DEX-14D220354852022-12-06 00:50:1736.0667-84.732711516115370Clb=-5.7m/s Type=DFM17 ser=[BC]22035485 Details on http://radiosondy.info
W4DEX-14D220354852022-12-06 00:50:0136.0693-84.739411615015460Clb=-4.3m/s Type=DFM17 ser=[BC]22035485 Details on http://radiosondy.info
W4DEX-14D220354852022-12-06 00:49:4636.0717-84.745712215015551Clb=-4.9m/s Type=DFM17 ser=[BC]22035485 Details on http://radiosondy.info
W4DEX-14D220354852022-12-06 00:49:3636.0935-84.851711713517165Clb=-6.5m/s Type=DFM17 ser=[BC]22035485 Details on http://radiosondy.info
W4DEX-14D220354852022-12-06 00:49:3436.0955-84.857610511317286Clb=-6.5m/s Type=DFM17 ser=[BC]22035485 Details on http://radiosondy.info
W4DEX-14D220354852022-12-06 00:49:3336.0972-84.86251139617394Clb=-6.1m/s Type=DFM17 ser=[BC]22035485 Details on http://radiosondy.info
W4DEX-14D220354852022-12-06 00:49:3236.0986-84.86671108717502Clb=-8.7m/s Type=DFM17 ser=[BC]22035485 Details on http://radiosondy.info
W4DEX-14D220354852022-12-06 00:49:3136.0995-84.87051058317602Clb=-8.7m/s Type=DFM17 ser=[BC]22035485 Details on http://radiosondy.info
W4DEX-14D220354852022-12-06 00:49:3036.1002-84.87831039417812Clb=-7.1m/s Type=DFM17 ser=[BC]22035485 Details on http://radiosondy.info
W4DEX-14D220354852022-12-06 00:49:2936.1002-84.88279110617920Clb=-6.1m/s Type=DFM17 ser=[BC]22035485 Details on http://radiosondy.info
W4DEX-14D220354852022-12-06 00:49:2836.1006-84.88759810418031Clb=-7.6m/s Type=DFM17 ser=[BC]22035485 Details on http://radiosondy.info
W4DEX-14D220354852022-12-06 00:49:1536.1012-84.8921979118140Clb=-6.8m/s Type=DFM17 ser=[BC]22035485 Details on http://radiosondy.info
W4DEX-14D220354852022-12-06 00:48:5136.1018-84.89621008718259Clb=-5.7m/s Type=DFM17 ser=[BC]22035485 Details on http://radiosondy.info
W4DEX-14D220354852022-12-06 00:48:2736.1022-84.9001908118372Clb=-8.0m/s Type=DFM17 ser=[BC]22035485 Details on http://radiosondy.info
W4DEX-14D220354852022-12-06 00:48:0036.1028-84.90361177618495Clb=-7.0m/s Type=DFM17 ser=[BC]22035485 Details on http://radiosondy.info
W4DEX-14D220354852022-12-06 00:47:3236.1034-84.90711008518618Clb=-7.9m/s Type=DFM17 ser=[BC]22035485 Details on http://radiosondy.info
W4DEX-14D220354852022-12-06 00:47:0436.1038-84.911887818743Clb=-10.0m/s Type=DFM17 ser=[BC]22035485 Details on http://radiosondy.info
W4DEX-14D220354852022-12-06 00:46:3836.1041-84.91451037418881Clb=-7.9m/s Type=DFM17 ser=[BC]22035485 Details on http://radiosondy.info
W4DEX-14D220354852022-12-06 00:46:1036.1046-84.91781077619010Clb=-8.1m/s Type=DFM17 ser=[BC]22035485 Details on http://radiosondy.info
W4DEX-14D220354852022-12-06 00:45:4436.1052-84.92121028319139Clb=-6.9m/s Type=DFM17 ser=[BC]22035485 Details on http://radiosondy.info
W4DEX-14D220354852022-12-06 00:45:1636.1055-84.9251917819269Clb=-10.5m/s Type=DFM17 ser=[BC]22035485 Details on http://radiosondy.info
W4DEX-14D220354852022-12-06 00:44:5136.1059-84.9286957819400Clb=-9.8m/s Type=DFM17 ser=[BC]22035485 Details on http://radiosondy.info
W4DEX-14D220354852022-12-06 00:44:2736.1066-84.93211096919527Clb=-9.3m/s Type=DFM17 ser=[BC]22035485 Details on http://radiosondy.info
W4DEX-14D220354852022-12-06 00:44:0036.1071-84.93511066119658Clb=-10.4m/s Type=DFM17 ser=[BC]22035485 Details on http://radiosondy.info
W4DEX-14D220354852022-12-06 00:43:3336.1078-84.9378866519785Clb=-9.6m/s Type=DFM17 ser=[BC]22035485 Details on http://radiosondy.info
W4DEX-14D220354852022-12-06 00:43:0536.1086-84.94071147819922Clb=-8.2m/s Type=DFM17 ser=[BC]22035485 Details on http://radiosondy.info
W4DEX-14D220354852022-12-06 00:42:3836.1093-84.9441847420052Clb=-11.0m/s Type=DFM17 ser=[BC]22035485 Details on http://radiosondy.info
W4DEX-14D220354852022-12-06 00:42:0536.1101-84.94731046320182Clb=-8.6m/s Type=DFM17 ser=[BC]22035485 Details on http://radiosondy.info
W4DEX-14D220354852022-12-06 00:41:3936.1107-84.95825020317Clb=-9.3m/s Type=DFM17 ser=[BC]22035485 Details on http://radiosondy.info
W4DEX-14D220354852022-12-06 00:41:1036.1115-84.9521394420464Clb=-8.2m/s Type=DFM17 ser=[BC]22035485 Details on http://radiosondy.info
W4DEX-14D220354852022-12-06 00:40:4236.1123-84.95371264420605Clb=-8.4m/s Type=DFM17 ser=[BC]22035485 Details on http://radiosondy.info
W4DEX-14D220354852022-12-06 00:40:1436.1128-84.95551264420742Clb=-9.2m/s Type=DFM17 ser=[BC]22035485 Details on http://radiosondy.info
W4DEX-14D220354852022-12-06 00:39:4736.113-84.95741245020883Clb=-7.4m/s Type=DFM17 ser=[BC]22035485 Details on http://radiosondy.info
W4DEX-14D220354852022-12-06 00:39:2036.1134-84.95971115621045Clb=-8.1m/s Type=DFM17 ser=[BC]22035485 Details on http://radiosondy.info
W4DEX-14D220354852022-12-06 00:38:5436.114-84.96211234821230Clb=-12.0m/s Type=DFM17 ser=[BC]22035485 Details on http://radiosondy.info
W4DEX-14D220354852022-12-06 00:38:2736.1147-84.96421034421382Clb=-11.5m/s Type=DFM17 ser=[BC]22035485 Details on http://radiosondy.info
W4DEX-14D220354852022-12-06 00:38:0036.1149-84.96611053121551Clb=-13.2m/s Type=DFM17 ser=[BC]22035485 Details on http://radiosondy.info
W4DEX-14D220354852022-12-06 00:37:2636.1151-84.96761033021685Clb=-6.9m/s Type=DFM17 ser=[BC]22035485 Details on http://radiosondy.info
W4DEX-14D220354852022-12-06 00:36:5636.1153-84.96891102621822Clb=-8.4m/s Type=DFM17 ser=[BC]22035485 Details on http://radiosondy.info
W4DEX-14D220354852022-12-06 00:36:2536.1155-84.9701883021953Clb=-9.9m/s Type=DFM17 ser=[BC]22035485 Details on http://radiosondy.info
W4DEX-14D220354852022-12-06 00:36:0036.1153-84.9714785022121Clb=-10.5m/s Type=DFM17 ser=[BC]22035485 Details on http://radiosondy.info
W4DEX-14D220354852022-12-06 00:35:4536.1144-84.9734485922319Clb=-10.1m/s Type=DFM17 ser=[BC]22035485 Details on http://radiosondy.info
W4DEX-14D220354852022-12-06 00:35:3636.1136-84.976817222473Clb=-10.8m/s Type=DFM17 ser=[BC]22035485 Details on http://radiosondy.info
W4DEX-14D220354852022-12-06 00:35:1736.1133-84.97921116122647Clb=-14.2m/s Type=DFM17 ser=[BC]22035485 Details on http://radiosondy.info
W4DEX-14D220354852022-12-06 00:35:0036.1136-84.98191114622802Clb=-10.5m/s Type=DFM17 ser=[BC]22035485 Details on http://radiosondy.info
W4DEX-14D220354852022-12-06 00:34:4536.1141-84.9841304822976Clb=-12.2m/s Type=DFM17 ser=[BC]22035485 Details on http://radiosondy.info
W4DEX-14D220354852022-12-06 00:34:3436.1149-84.9859964623124Clb=-9.4m/s Type=DFM17 ser=[BC]22035485 Details on http://radiosondy.info
W4DEX-14D220354852022-12-06 00:34:1836.1154-84.9879916123306Clb=-10.7m/s Type=DFM17 ser=[BC]22035485 Details on http://radiosondy.info
W4DEX-14D220354852022-12-06 00:34:0036.1154-84.9907796323479Clb=-14.7m/s Type=DFM17 ser=[BC]22035485 Details on http://radiosondy.info
W4DEX-14D220354852022-12-06 00:33:4536.1154-84.99371016723666Clb=-10.8m/s Type=DFM17 ser=[BC]22035485 Details on http://radiosondy.info
W4DEX-14D220354852022-12-06 00:33:3136.1155-84.9967977223864Clb=-15.9m/s Type=DFM17 ser=[BC]22035485 Details on http://radiosondy.info
W4DEX-14D220354852022-12-06 00:33:1436.1162-85.00041017224031Clb=-13.5m/s Type=DFM17 ser=[BC]22035485 Details on http://radiosondy.info
W4DEX-14D220354852022-12-06 00:32:5136.1261-85.0988685723538Clb=6.1m/s Type=DFM17 ser=[BC]22035485 Details on http://radiosondy.info
W4DEX-14D220354852022-12-06 00:32:2236.126-85.1015836123450Clb=4.2m/s Type=DFM17 ser=[BC]22035485 Details on http://radiosondy.info
W4DEX-14D220354852022-12-06 00:31:5336.1262-85.1042935923387Clb=7.2m/s Type=DFM17 ser=[BC]22035485 Details on http://radiosondy.info
W4DEX-14D220354852022-12-06 00:31:2436.1265-85.1069904623307Clb=6.9m/s Type=DFM17 ser=[BC]22035485 Details on http://radiosondy.info
W4DEX-14D220354852022-12-06 00:30:5536.1269-85.1089935223223Clb=2.9m/s Type=DFM17 ser=[BC]22035485 Details on http://radiosondy.info
W4DEX-14D220354852022-12-06 00:30:3036.1274-85.1111215423156Clb=4.7m/s Type=DFM17 ser=[BC]22035485 Details on http://radiosondy.info
W4DEX-14D220354852022-12-06 00:30:0036.1281-85.11311215423080Clb=7.1m/s Type=DFM17 ser=[BC]22035485 Details on http://radiosondy.info
W4DEX-14D220354852022-12-06 00:29:3436.1291-85.11521094423000Clb=6.4m/s Type=DFM17 ser=[BC]22035485 Details on http://radiosondy.info
W4DEX-14D220354852022-12-06 00:29:0536.1296-85.1171915022932Clb=4.9m/s Type=DFM17 ser=[BC]22035485 Details on http://radiosondy.info
W4DEX-14D220354852022-12-06 00:28:3736.1301-85.1192905022854Clb=4.0m/s Type=DFM17 ser=[BC]22035485 Details on http://radiosondy.info
W4DEX-14D220354852022-12-06 00:28:1036.1307-85.1214965922784Clb=4.4m/s Type=DFM17 ser=[BC]22035485 Details on http://radiosondy.info
W4DEX-14D220354852022-12-06 00:27:4136.131-85.124876322713Clb=4.3m/s Type=DFM17 ser=[BC]22035485 Details on http://radiosondy.info
W4DEX-14D220354852022-12-06 00:27:1136.1312-85.1268836122637Clb=4.5m/s Type=DFM17 ser=[BC]22035485 Details on http://radiosondy.info
W4DEX-14D220354852022-12-06 00:26:4436.1312-85.1299766922565Clb=5.2m/s Type=DFM17 ser=[BC]22035485 Details on http://radiosondy.info
W4DEX-14D220354852022-12-06 00:26:1336.1306-85.133626722488Clb=4.0m/s Type=DFM17 ser=[BC]22035485 Details on http://radiosondy.info
W4DEX-14D220354852022-12-06 00:25:4536.1299-85.1359645722415Clb=5.0m/s Type=DFM17 ser=[BC]22035485 Details on http://radiosondy.info
W4DEX-14D220354852022-12-06 00:25:1536.129-85.1382645222336Clb=5.4m/s Type=DFM17 ser=[BC]22035485 Details on http://radiosondy.info
W4DEX-14D220354852022-12-06 00:24:4736.128-85.1403515222258Clb=2.3m/s Type=DFM17 ser=[BC]22035485 Details on http://radiosondy.info
W4DEX-14D220354852022-12-06 00:24:1536.1268-85.1425504622179Clb=6.7m/s Type=DFM17 ser=[BC]22035485 Details on http://radiosondy.info
W4DEX-14D220354852022-12-06 00:23:4836.1258-85.1441663922106Clb=5.8m/s Type=DFM17 ser=[BC]22035485 Details on http://radiosondy.info
W4DEX-14D220354852022-12-06 00:23:2036.125-85.1454863722028Clb=5.5m/s Type=DFM17 ser=[BC]22035485 Details on http://radiosondy.info
W4DEX-14D220354852022-12-06 00:22:5136.1245-85.1469673121955Clb=2.5m/s Type=DFM17 ser=[BC]22035485 Details on http://radiosondy.info
W4DEX-14D220354852022-12-06 00:22:2136.1243-85.14821373321879Clb=4.6m/s Type=DFM17 ser=[BC]22035485 Details on http://radiosondy.info
W4DEX-14D220354852022-12-06 00:21:5436.1244-85.14951133321807Clb=5.8m/s Type=DFM17 ser=[BC]22035485 Details on http://radiosondy.info
W4DEX-14D220354852022-12-06 00:21:2636.1244-85.15081093721727Clb=0.8m/s Type=DFM17 ser=[BC]22035485 Details on http://radiosondy.info
W4DEX-14D220354852022-12-06 00:20:5936.125-85.15221043721657Clb=5.5m/s Type=DFM17 ser=[BC]22035485 Details on http://radiosondy.info
W4DEX-14D220354852022-12-06 00:20:3136.1255-85.15381245621591Clb=-0.2m/s Type=DFM17 ser=[BC]22035485 Details on http://radiosondy.info
W4DEX-14D220354852022-12-06 00:20:0236.1262-85.156855621517Clb=2.6m/s Type=DFM17 ser=[BC]22035485 Details on http://radiosondy.info
W4DEX-14D220354852022-12-06 00:19:3336.1268-85.15841115721442Clb=4.6m/s Type=DFM17 ser=[BC]22035485 Details on http://radiosondy.info
W4DEX-14D220354852022-12-06 00:19:0636.1276-85.1609965621382Clb=-1.6m/s Type=DFM17 ser=[BC]22035485 Details on http://radiosondy.info
W4DEX-14D220354852022-12-06 00:18:3936.1286-85.16331015621313Clb=1.3m/s Type=DFM17 ser=[BC]22035485 Details on http://radiosondy.info
W4DEX-14D220354852022-12-06 00:18:1236.1296-85.16551276321256Clb=2.6m/s Type=DFM17 ser=[BC]22035485 Details on http://radiosondy.info
W4DEX-14D220354852022-12-06 00:17:4336.1306-85.16811116921187Clb=6.4m/s Type=DFM17 ser=[BC]22035485 Details on http://radiosondy.info
W4DEX-14D220354852022-12-06 00:17:1236.1315-85.17131146521108Clb=-0.7m/s Type=DFM17 ser=[BC]22035485 Details on http://radiosondy.info
W4DEX-14D220354852022-12-06 00:16:4436.1322-85.17391305921037Clb=3.1m/s Type=DFM17 ser=[BC]22035485 Details on http://radiosondy.info
W4DEX-14D220354852022-12-06 00:16:1736.1329-85.17641275220961Clb=5.8m/s Type=DFM17 ser=[BC]22035485 Details on http://radiosondy.info
W4DEX-14D220354852022-12-06 00:15:5536.1334-85.17881075220882Clb=1.3m/s Type=DFM17 ser=[BC]22035485 Details on http://radiosondy.info
W4DEX-14D220354852022-12-06 00:15:3936.1337-85.18121014620800Clb=5.8m/s Type=DFM17 ser=[BC]22035485 Details on http://radiosondy.info
W4DEX-14D220354852022-12-06 00:15:2736.134-85.18321214820716Clb=5.6m/s Type=DFM17 ser=[BC]22035485 Details on http://radiosondy.info
W4DEX-14D220354852022-12-06 00:15:1036.1346-85.18521224320640Clb=4.9m/s Type=DFM17 ser=[BC]22035485 Details on http://radiosondy.info
W4DEX-14D220354852022-12-06 00:14:5436.1354-85.18681185220552Clb=5.1m/s Type=DFM17 ser=[BC]22035485 Details on http://radiosondy.info
W4DEX-14D220354852022-12-06 00:14:4436.1362-85.18881345020471Clb=6.1m/s Type=DFM17 ser=[BC]22035485 Details on http://radiosondy.info
W4DEX-14D220354852022-12-06 00:14:4036.1369-85.19091245620404Clb=9.1m/s Type=DFM17 ser=[BC]22035485 Details on http://radiosondy.info
W4DEX-14D220354852022-12-06 00:14:2636.1382-85.19431036320278Clb=5.8m/s Type=DFM17 ser=[BC]22035485 Details on http://radiosondy.info
W4DEX-14D220354852022-12-06 00:14:1036.1392-85.19691127220205Clb=7.9m/s Type=DFM17 ser=[BC]22035485 Details on http://radiosondy.info
W4DEX-14D220354852022-12-06 00:13:5936.1401-85.21127820120Clb=3.8m/s Type=DFM17 ser=[BC]22035485 Details on http://radiosondy.info
W4DEX-14D220354852022-12-06 00:13:5536.1408-85.20341017820049Clb=3.2m/s Type=DFM17 ser=[BC]22035485 Details on http://radiosondy.info
W4DEX-14D220354852022-12-06 00:13:5036.1413-85.2071018019984Clb=3.2m/s Type=DFM17 ser=[BC]22035485 Details on http://radiosondy.info
W4DEX-14D220354852022-12-06 00:13:4536.1419-85.2105997419910Clb=5.9m/s Type=DFM17 ser=[BC]22035485 Details on http://radiosondy.info
W4DEX-14D220354852022-12-06 00:13:4336.1427-85.2139976719844Clb=6.9m/s Type=DFM17 ser=[BC]22035485 Details on http://radiosondy.info
W4DEX-14D220354852022-12-06 00:13:4036.1433-85.21681086119768Clb=4.4m/s Type=DFM17 ser=[BC]22035485 Details on http://radiosondy.info
W4DEX-14D220354852022-12-06 00:13:3936.1441-85.21941135919702Clb=4.4m/s Type=DFM17 ser=[BC]22035485 Details on http://radiosondy.info
W4DEX-14D220354852022-12-06 00:13:3736.1449-85.2221127019632Clb=0.3m/s Type=DFM17 ser=[BC]22035485 Details on http://radiosondy.info
W4DEX-14D220354852022-12-06 00:13:3636.1456-85.22531117619564Clb=3.2m/s Type=DFM Details on http://radiosondy.info
W4DEX-14D220354852022-12-06 00:13:3536.1462-85.22881097619487Clb=6.7m/s Type=DFM17 ser=[BC]22035485 Details on http://radiosondy.info
W4DEX-14D220354852022-12-06 00:13:2536.1467-85.23221018119413Clb=4.2m/s Type=DFM17 ser=[BC]22035485 Details on http://radiosondy.info
W4DEX-14D220354852022-12-06 00:13:0736.1473-85.23581038119339Clb=5.3m/s Type=DFM17 ser=[BC]22035485 Details on http://radiosondy.info
W4DEX-14D220354852022-12-06 00:13:0036.1479-85.24331008019190Clb=4.0m/s Type=DFM17 ser=[BC]22035485 Details on http://radiosondy.info
W4DEX-14D220354852022-12-06 00:12:5936.1483-85.24681077619116Clb=6.4m/s Type=DFM17 ser=[BC]22035485 Details on http://radiosondy.info
W4DEX-14D220354852022-12-06 00:12:5836.1488-85.25041097419038Clb=5.5m/s Type=DFM17 ser=[BC]22035485 Details on http://radiosondy.info
W4DEX-14D220354852022-12-06 00:12:5736.1493-85.25351057218960Clb=2.2m/s Type=DFM17 ser=[BC]22035485 Details on http://radiosondy.info
W4DEX-14D220354852022-12-06 00:12:5636.1498-85.257887818881Clb=3.9m/s Type=DFM17 ser=[BC]22035485 Details on http://radiosondy.info
W4DEX-14D220354852022-12-06 00:12:5436.1502-85.26041057618806Clb=4.7m/s Type=DFM17 ser=[BC]22035485 Details on http://radiosondy.info
W4DEX-14D220354852022-12-06 00:12:3736.1506-85.26391048318729Clb=3.5m/s Type=DFM17 ser=[BC]22035485 Details on http://radiosondy.info
W4DEX-14D220354852022-12-06 00:12:0736.151-85.2678937818648Clb=5.9m/s Type=DFM17 ser=[BC]22035485 Details on http://radiosondy.info
W4DEX-14D220354852022-12-06 00:11:3936.1514-85.27151007818573Clb=4.7m/s Type=DFM17 ser=[BC]22035485 Details on http://radiosondy.info
W4DEX-14D220354852022-12-06 00:11:1336.1521-85.2749907818500Clb=5.2m/s Type=DFM17 ser=[BC]22035485 Details on http://radiosondy.info
W4DEX-14D220354852022-12-06 00:10:4536.1527-85.27831097618439Clb=4.3m/s Type=DFM17 ser=[BC]22035485 Details on http://radiosondy.info
W4DEX-14D220354852022-12-06 00:10:1636.1536-85.28171057818360Clb=5.5m/s Type=DFM17 ser=[BC]22035485 Details on http://radiosondy.info
W4DEX-14D220354852022-12-06 00:09:4636.1541-85.28521058518291Clb=4.6m/s Type=DFM17 ser=[BC]22035485 Details on http://radiosondy.info
W4DEX-14D220354852022-12-06 00:09:2036.1544-85.28921089118220Clb=6.4m/s Type=DFM17 ser=[BC]22035485 Details on http://radiosondy.info
W4DEX-14D220354852022-12-06 00:08:5136.1548-85.29339210018151Clb=5.4m/s Type=DFM17 ser=[BC]22035485 Details on http://radiosondy.info
W4DEX-14D220354852022-12-06 00:08:2536.1553-85.29811310218087Clb=4.0m/s Type=DFM17 ser=[BC]22035485 Details on http://radiosondy.info
W4DEX-14D220354852022-12-06 00:07:5536.1559-85.302411210618027Clb=4.0m/s Type=DFM17 ser=[BC]22035485 Details on http://radiosondy.info
W4DEX-14D220354852022-12-06 00:07:2936.1564-85.3074869617963Clb=4.6m/s Type=DFM17 ser=[BC]22035485 Details on http://radiosondy.info
W4DEX-14D220354852022-12-06 00:07:0336.1565-85.3118938717898Clb=5.3m/s Type=DFM17 ser=[BC]22035485 Details on http://radiosondy.info
W4DEX-14D220354852022-12-06 00:06:3936.1565-85.3158839117827Clb=4.2m/s Type=DFM17 ser=[BC]22035485 Details on http://radiosondy.info
W4DEX-14D220354852022-12-06 00:06:1236.157-85.31981138717755Clb=5.5m/s Type=DFM17 ser=[BC]22035485 Details on http://radiosondy.info
W4DEX-14D220354852022-12-06 00:05:4336.1578-85.32371178117685Clb=1.3m/s Type=DFM17 ser=[BC]22035485 Details on http://radiosondy.info
W4DEX-14D220354852022-12-06 00:05:1536.1589-85.32741099817604Clb=5.3m/s Type=DFM17 ser=[BC]22035485 Details on http://radiosondy.info
W4DEX-14D220354852022-12-06 00:04:5036.1602-85.331511510617525Clb=4.6m/s Type=DFM17 ser=[BC]22035485 Details on http://radiosondy.info
W4DEX-14D220354852022-12-06 00:04:2236.1619-85.33611511917450Clb=4.1m/s Type=DFM17 ser=[BC]22035485 Details on http://radiosondy.info
W4DEX-14D220354852022-12-06 00:04:0036.1636-85.34110312617378Clb=2.7m/s Type=DFM17 ser=[BC]22035485 Details on http://radiosondy.info
W4DEX-14D220354852022-12-06 00:03:4636.1653-85.346310813317301Clb=6.6m/s Type=DFM17 ser=[BC]22035485 Details on http://radiosondy.info
W4DEX-14D220354852022-12-06 00:03:3336.1672-85.35211314317227Clb=6.1m/s Type=DFM17 ser=[BC]22035485 Details on http://radiosondy.info
W4DEX-14D220354852022-12-06 00:03:1836.1691-85.358111214617161Clb=5.7m/s Type=DFM17 ser=[BC]22035485 Details on http://radiosondy.info
W4DEX-14D220354852022-12-06 00:03:0036.1705-85.364611015017096Clb=7.5m/s Type=DFM17 ser=[BC]22035485 Details on http://radiosondy.info
W4DEX-14D220354852022-12-06 00:02:4536.1716-85.37139714317022Clb=3.6m/s Type=DFM17 ser=[BC]22035485 Details on http://radiosondy.info
W4DEX-14D220354852022-12-06 00:02:3036.1722-85.377910013916944Clb=4.9m/s Type=DFM17 ser=[BC]22035485 Details on http://radiosondy.info
W4DEX-14D220354852022-12-06 00:02:1536.1727-85.38439513016869Clb=5.0m/s Type=DFM17 ser=[BC]22035485 Details on http://radiosondy.info
W4DEX-14D220354852022-12-06 00:02:0036.1728-85.39039812616797Clb=5.5m/s Type=DFM17 ser=[BC]22035485 Details on http://radiosondy.info
W4DEX-14D220354852022-12-06 00:01:4536.1728-85.39618711916721Clb=5.8m/s Type=DFM17 ser=[BC]22035485 Details on http://radiosondy.info
W4DEX-14D220354852022-12-06 00:01:3236.1728-85.40168711716646Clb=6.2m/s Type=DFM17 ser=[BC]22035485 Details on http://radiosondy.info
W4DEX-14D220354852022-12-06 00:01:1636.1731-85.4079811716564Clb=6.4m/s Type=DFM17 ser=[BC]22035485 Details on http://radiosondy.info
W4DEX-14D220354852022-12-06 00:01:0036.1739-85.412211612016479Clb=6.8m/s Type=DFM17 ser=[BC]22035485 Details on http://radiosondy.info
W4DEX-14D220354852022-12-06 00:00:5536.1789-85.428511214416245Clb=4.9m/s Type=DFM17 ser=[BC]22035485 Details on http://radiosondy.info
W4DEX-14D220354852022-12-06 00:00:5236.1811-85.434712115416171Clb=6.4m/s Type=DFM17 ser=[BC]22035485 Details on http://radiosondy.info
W4DEX-14D220354852022-12-06 00:00:4836.1834-85.441211116116100Clb=6.1m/s Type=DFM17 ser=[BC]22035485 Details on http://radiosondy.info
W4DEX-14D220354852022-12-06 00:00:4436.1854-85.448210216116019Clb=3.8m/s Type=DFM17 ser=[BC]22035485 Details on http://radiosondy.info
W4DEX-14D220354852022-12-06 00:00:4136.1868-85.455311015615952Clb=4.8m/s Type=DFM17 ser=[BC]22035485 Details on http://radiosondy.info
W4DEX-14D220354852022-12-06 00:00:3736.1883-85.462310615215879Clb=5.3m/s Type=DFM17 ser=[BC]22035485 Details on http://radiosondy.info
W4DEX-14D220354852022-12-06 00:00:3436.1898-85.46911014115805Clb=7.5m/s Type=DFM17 ser=[BC]22035485 Details on http://radiosondy.info
W4DEX-14D220354852022-12-06 00:00:3236.1916-85.475110414615731Clb=5.6m/s Type=DFM17 ser=[BC]22035485 Details on http://radiosondy.info
W4DEX-14D220354852022-12-06 00:00:3136.1936-85.481412415015653Clb=3.0m/s Type=DFM17 ser=[BC]22035485 Details on http://radiosondy.info
W4DEX-14D220354852022-12-06 00:00:2936.1959-85.487611015215578Clb=3.5m/s Type=DFM17 ser=[BC]22035485 Details on http://radiosondy.info
W4DEX-14D220354852022-12-06 00:00:1336.1983-85.493911615915499Clb=6.2m/s Type=DFM17 ser=[BC]22035485 Details on http://radiosondy.info
W4DEX-14D220354852022-12-05 23:59:4236.2008-85.500711716715425Clb=5.6m/s Type=DFM Details on http://radiosondy.info
W4DEX-14D220354852022-12-05 23:59:1536.2032-85.507811716515336Clb=5.3m/s Type=DFM Details on http://radiosondy.info
W4DEX-14D220354852022-12-05 23:58:4936.2056-85.514811016715248Clb=5.6m/s Type=DFM Details on http://radiosondy.info
W4DEX-14D220354852022-12-05 23:58:2336.2081-85.521911017015173Clb=6.2m/s Type=DFM Details on http://radiosondy.info